sensor_id;sensor_type;location;lat;lon;timestamp;P1;durP1;ratioP1;P2;durP2;ratioP2
57443;SDS011;43289;52.962;6.196;2023-05-18T00:02:14;8.05;;;3.58;;
57443;SDS011;43289;52.962;6.196;2023-05-18T00:04:40;9.60;;;4.15;;
57443;SDS011;43289;52.962;6.196;2023-05-18T00:07:07;11.57;;;5.13;;
57443;SDS011;43289;52.962;6.196;2023-05-18T00:09:33;7.32;;;3.80;;
57443;SDS011;43289;52.962;6.196;2023-05-18T00:12:00;7.40;;;4.05;;
57443;SDS011;43289;52.962;6.196;2023-05-18T00:14:27;9.38;;;3.80;;
57443;SDS011;43289;52.962;6.196;2023-05-18T00:16:52;10.05;;;4.03;;
57443;SDS011;43289;52.962;6.196;2023-05-18T00:19:19;7.88;;;4.38;;
57443;SDS011;43289;52.962;6.196;2023-05-18T00:21:48;7.28;;;3.75;;
57443;SDS011;43289;52.962;6.196;2023-05-18T00:24:15;8.57;;;4.05;;
57443;SDS011;43289;52.962;6.196;2023-05-18T00:26:42;7.75;;;3.80;;
57443;SDS011;43289;52.962;6.196;2023-05-18T00:29:09;10.60;;;4.22;;
57443;SDS011;43289;52.962;6.196;2023-05-18T00:31:35;8.50;;;4.07;;
57443;SDS011;43289;52.962;6.196;2023-05-18T00:34:03;8.98;;;4.57;;
57443;SDS011;43289;52.962;6.196;2023-05-18T00:36:29;12.32;;;4.82;;
57443;SDS011;43289;52.962;6.196;2023-05-18T00:38:58;8.93;;;4.18;;
57443;SDS011;43289;52.962;6.196;2023-05-18T00:41:26;9.90;;;4.57;;
57443;SDS011;43289;52.962;6.196;2023-05-18T00:43:53;9.82;;;4.70;;
57443;SDS011;43289;52.962;6.196;2023-05-18T00:46:20;9.77;;;4.35;;
57443;SDS011;43289;52.962;6.196;2023-05-18T00:48:47;8.45;;;4.03;;
57443;SDS011;43289;52.962;6.196;2023-05-18T00:51:14;9.02;;;4.13;;
57443;SDS011;43289;52.962;6.196;2023-05-18T00:53:40;10.60;;;4.47;;
57443;SDS011;43289;52.962;6.196;2023-05-18T00:56:07;9.95;;;4.70;;
57443;SDS011;43289;52.962;6.196;2023-05-18T00:58:33;8.50;;;4.55;;
57443;SDS011;43289;52.962;6.196;2023-05-18T01:00:59;12.02;;;4.90;;
57443;SDS011;43289;52.962;6.196;2023-05-18T01:03:27;8.82;;;4.25;;
57443;SDS011;43289;52.962;6.196;2023-05-18T01:05:54;10.73;;;4.57;;
57443;SDS011;43289;52.962;6.196;2023-05-18T01:08:22;9.55;;;4.40;;
57443;SDS011;43289;52.962;6.196;2023-05-18T01:10:54;13.05;;;5.10;;
57443;SDS011;43289;52.962;6.196;2023-05-18T01:13:53;7.07;;;4.45;;
57443;SDS011;43289;52.962;6.196;2023-05-18T01:16:26;13.32;;;5.15;;
57443;SDS011;43289;52.962;6.196;2023-05-18T01:19:01;13.68;;;4.57;;
57443;SDS011;43289;52.962;6.196;2023-05-18T01:24:51;9.35;;;4.57;;
57443;SDS011;43289;52.962;6.196;2023-05-18T01:27:26;9.02;;;5.10;;
57443;SDS011;43289;52.962;6.196;2023-05-18T01:29:52;8.63;;;4.55;;
57443;SDS011;43289;52.962;6.196;2023-05-18T01:32:21;13.07;;;5.47;;
57443;SDS011;43289;52.962;6.196;2023-05-18T01:34:47;12.95;;;5.10;;
57443;SDS011;43289;52.962;6.196;2023-05-18T01:37:12;10.32;;;4.95;;
57443;SDS011;43289;52.962;6.196;2023-05-18T01:39:39;10.55;;;4.97;;
57443;SDS011;43289;52.962;6.196;2023-05-18T01:42:07;13.13;;;5.88;;
57443;SDS011;43289;52.962;6.196;2023-05-18T01:44:47;9.07;;;4.50;;
57443;SDS011;43289;52.962;6.196;2023-05-18T01:47:17;9.63;;;5.28;;
57443;SDS011;43289;52.962;6.196;2023-05-18T01:52:35;9.35;;;4.72;;
57443;SDS011;43289;52.962;6.196;2023-05-18T01:55:04;9.38;;;4.65;;
57443;SDS011;43289;52.962;6.196;2023-05-18T01:57:31;10.60;;;5.13;;
57443;SDS011;43289;52.962;6.196;2023-05-18T01:59:59;11.63;;;5.13;;
57443;SDS011;43289;52.962;6.196;2023-05-18T02:02:25;14.00;;;5.60;;
57443;SDS011;43289;52.962;6.196;2023-05-18T02:04:53;6.53;;;4.72;;
57443;SDS011;43289;52.962;6.196;2023-05-18T02:07:20;12.40;;;4.95;;
57443;SDS011;43289;52.962;6.196;2023-05-18T02:09:45;7.25;;;4.35;;
57443;SDS011;43289;52.962;6.196;2023-05-18T02:12:11;12.65;;;4.93;;
57443;SDS011;43289;52.962;6.196;2023-05-18T02:14:36;9.55;;;4.47;;
57443;SDS011;43289;52.962;6.196;2023-05-18T02:17:02;10.32;;;4.82;;
57443;SDS011;43289;52.962;6.196;2023-05-18T02:19:31;11.82;;;4.50;;
57443;SDS011;43289;52.962;6.196;2023-05-18T02:21:57;8.55;;;4.43;;
57443;SDS011;43289;52.962;6.196;2023-05-18T02:24:23;11.27;;;4.40;;
57443;SDS011;43289;52.962;6.196;2023-05-18T02:26:51;8.50;;;4.47;;
57443;SDS011;43289;52.962;6.196;2023-05-18T02:29:17;9.38;;;4.35;;
57443;SDS011;43289;52.962;6.196;2023-05-18T02:31:43;12.20;;;5.07;;
57443;SDS011;43289;52.962;6.196;2023-05-18T02:34:08;9.73;;;4.65;;
57443;SDS011;43289;52.962;6.196;2023-05-18T02:36:34;6.68;;;4.30;;
57443;SDS011;43289;52.962;6.196;2023-05-18T02:39:06;9.30;;;4.53;;
57443;SDS011;43289;52.962;6.196;2023-05-18T02:41:35;9.55;;;5.32;;
57443;SDS011;43289;52.962;6.196;2023-05-18T02:44:02;8.57;;;4.43;;
57443;SDS011;43289;52.962;6.196;2023-05-18T02:46:28;9.55;;;4.35;;
57443;SDS011;43289;52.962;6.196;2023-05-18T02:48:55;12.02;;;4.53;;
57443;SDS011;43289;52.962;6.196;2023-05-18T02:51:21;10.30;;;4.57;;
57443;SDS011;43289;52.962;6.196;2023-05-18T02:53:47;7.53;;;4.25;;
57443;SDS011;43289;52.962;6.196;2023-05-18T02:56:14;9.50;;;5.00;;
57443;SDS011;43289;52.962;6.196;2023-05-18T02:58:41;8.38;;;4.70;;
57443;SDS011;43289;52.962;6.196;2023-05-18T03:01:08;12.00;;;4.28;;
57443;SDS011;43289;52.962;6.196;2023-05-18T03:03:36;10.93;;;3.83;;
57443;SDS011;43289;52.962;6.196;2023-05-18T03:06:02;9.55;;;4.25;;
57443;SDS011;43289;52.962;6.196;2023-05-18T03:08:28;11.40;;;4.60;;
57443;SDS011;43289;52.962;6.196;2023-05-18T03:10:55;11.35;;;4.78;;
57443;SDS011;43289;52.962;6.196;2023-05-18T03:13:21;7.22;;;4.22;;
57443;SDS011;43289;52.962;6.196;2023-05-18T03:15:47;7.57;;;4.30;;
57443;SDS011;43289;52.962;6.196;2023-05-18T03:18:14;10.38;;;4.25;;
57443;SDS011;43289;52.962;6.196;2023-05-18T03:20:42;9.65;;;4.20;;
57443;SDS011;43289;52.962;6.196;2023-05-18T03:23:08;7.82;;;3.80;;
57443;SDS011;43289;52.962;6.196;2023-05-18T03:25:33;10.52;;;3.90;;
57443;SDS011;43289;52.962;6.196;2023-05-18T03:28:01;10.05;;;4.35;;
57443;SDS011;43289;52.962;6.196;2023-05-18T03:30:32;10.50;;;4.70;;
57443;SDS011;43289;52.962;6.196;2023-05-18T03:32:59;8.82;;;4.20;;
57443;SDS011;43289;52.962;6.196;2023-05-18T03:35:25;7.50;;;3.72;;
57443;SDS011;43289;52.962;6.196;2023-05-18T03:37:51;8.00;;;4.00;;
57443;SDS011;43289;52.962;6.196;2023-05-18T03:40:17;7.13;;;3.97;;
57443;SDS011;43289;52.962;6.196;2023-05-18T03:42:43;10.02;;;5.03;;
57443;SDS011;43289;52.962;6.196;2023-05-18T03:45:09;7.55;;;5.25;;
57443;SDS011;43289;52.962;6.196;2023-05-18T03:47:36;7.38;;;4.35;;
57443;SDS011;43289;52.962;6.196;2023-05-18T03:50:02;11.50;;;4.20;;
57443;SDS011;43289;52.962;6.196;2023-05-18T03:52:29;10.50;;;4.10;;
57443;SDS011;43289;52.962;6.196;2023-05-18T03:54:59;11.10;;;4.93;;
57443;SDS011;43289;52.962;6.196;2023-05-18T03:57:26;9.20;;;4.30;;
57443;SDS011;43289;52.962;6.196;2023-05-18T03:59:52;8.38;;;3.67;;
57443;SDS011;43289;52.962;6.196;2023-05-18T04:02:18;8.52;;;4.00;;
57443;SDS011;43289;52.962;6.196;2023-05-18T04:04:44;7.50;;;3.80;;
57443;SDS011;43289;52.962;6.196;2023-05-18T04:07:11;6.50;;;4.28;;
57443;SDS011;43289;52.962;6.196;2023-05-18T04:09:37;9.63;;;4.05;;
57443;SDS011;43289;52.962;6.196;2023-05-18T04:12:03;13.40;;;4.68;;
57443;SDS011;43289;52.962;6.196;2023-05-18T04:14:29;9.25;;;4.40;;
57443;SDS011;43289;52.962;6.196;2023-05-18T04:16:58;12.25;;;4.70;;
57443;SDS011;43289;52.962;6.196;2023-05-18T04:19:35;8.52;;;4.78;;
57443;SDS011;43289;52.962;6.196;2023-05-18T04:22:02;10.40;;;4.70;;
57443;SDS011;43289;52.962;6.196;2023-05-18T04:24:33;7.30;;;4.57;;
57443;SDS011;43289;52.962;6.196;2023-05-18T04:26:59;7.72;;;5.15;;
57443;SDS011;43289;52.962;6.196;2023-05-18T04:29:26;9.02;;;4.57;;
57443;SDS011;43289;52.962;6.196;2023-05-18T04:31:54;9.77;;;4.18;;
57443;SDS011;43289;52.962;6.196;2023-05-18T04:34:27;8.23;;;4.35;;
57443;SDS011;43289;52.962;6.196;2023-05-18T04:36:53;7.18;;;4.40;;
57443;SDS011;43289;52.962;6.196;2023-05-18T04:39:22;8.98;;;4.65;;
57443;SDS011;43289;52.962;6.196;2023-05-18T04:41:48;11.13;;;4.40;;
57443;SDS011;43289;52.962;6.196;2023-05-18T04:44:16;7.38;;;3.90;;
57443;SDS011;43289;52.962;6.196;2023-05-18T04:46:42;8.52;;;4.38;;
57443;SDS011;43289;52.962;6.196;2023-05-18T04:49:14;6.25;;;3.80;;
57443;SDS011;43289;52.962;6.196;2023-05-18T04:51:40;6.85;;;4.00;;
57443;SDS011;43289;52.962;6.196;2023-05-18T04:54:06;9.38;;;4.50;;
57443;SDS011;43289;52.962;6.196;2023-05-18T04:56:33;10.98;;;4.78;;
57443;SDS011;43289;52.962;6.196;2023-05-18T04:58:58;7.03;;;4.70;;
57443;SDS011;43289;52.962;6.196;2023-05-18T05:01:24;10.57;;;4.57;;
57443;SDS011;43289;52.962;6.196;2023-05-18T05:03:50;9.35;;;4.97;;
57443;SDS011;43289;52.962;6.196;2023-05-18T05:06:15;13.27;;;5.47;;
57443;SDS011;43289;52.962;6.196;2023-05-18T05:08:41;9.60;;;5.15;;
57443;SDS011;43289;52.962;6.196;2023-05-18T05:11:06;9.60;;;4.50;;
57443;SDS011;43289;52.962;6.196;2023-05-18T05:13:32;10.65;;;4.35;;
57443;SDS011;43289;52.962;6.196;2023-05-18T05:16:00;9.45;;;4.65;;
57443;SDS011;43289;52.962;6.196;2023-05-18T05:18:26;9.82;;;5.53;;
57443;SDS011;43289;52.962;6.196;2023-05-18T05:20:52;8.52;;;4.57;;
57443;SDS011;43289;52.962;6.196;2023-05-18T05:23:18;8.82;;;4.47;;
57443;SDS011;43289;52.962;6.196;2023-05-18T05:25:44;10.32;;;4.63;;
57443;SDS011;43289;52.962;6.196;2023-05-18T05:28:10;10.65;;;5.18;;
57443;SDS011;43289;52.962;6.196;2023-05-18T05:30:36;9.00;;;4.13;;
57443;SDS011;43289;52.962;6.196;2023-05-18T05:33:02;13.82;;;4.63;;
57443;SDS011;43289;52.962;6.196;2023-05-18T05:35:28;8.32;;;4.65;;
57443;SDS011;43289;52.962;6.196;2023-05-18T05:37:54;9.88;;;4.85;;
57443;SDS011;43289;52.962;6.196;2023-05-18T05:40:20;10.15;;;4.75;;
57443;SDS011;43289;52.962;6.196;2023-05-18T05:42:47;9.82;;;5.40;;
57443;SDS011;43289;52.962;6.196;2023-05-18T05:45:13;6.97;;;4.40;;
57443;SDS011;43289;52.962;6.196;2023-05-18T05:47:38;16.10;;;5.45;;
57443;SDS011;43289;52.962;6.196;2023-05-18T05:50:04;9.32;;;4.65;;
57443;SDS011;43289;52.962;6.196;2023-05-18T05:52:30;8.98;;;4.57;;
57443;SDS011;43289;52.962;6.196;2023-05-18T05:54:55;9.38;;;5.25;;
57443;SDS011;43289;52.962;6.196;2023-05-18T05:57:21;10.15;;;5.55;;
57443;SDS011;43289;52.962;6.196;2023-05-18T05:59:47;7.28;;;3.97;;
57443;SDS011;43289;52.962;6.196;2023-05-18T06:02:13;9.27;;;4.22;;
57443;SDS011;43289;52.962;6.196;2023-05-18T06:04:39;10.32;;;4.43;;
57443;SDS011;43289;52.962;6.196;2023-05-18T06:07:05;9.20;;;4.20;;
57443;SDS011;43289;52.962;6.196;2023-05-18T06:09:31;17.85;;;5.63;;
57443;SDS011;43289;52.962;6.196;2023-05-18T06:11:56;11.35;;;4.47;;
57443;SDS011;43289;52.962;6.196;2023-05-18T06:14:25;7.43;;;4.07;;
57443;SDS011;43289;52.962;6.196;2023-05-18T06:16:53;12.02;;;4.35;;
57443;SDS011;43289;52.962;6.196;2023-05-18T06:19:19;9.45;;;4.32;;
57443;SDS011;43289;52.962;6.196;2023-05-18T06:21:44;7.63;;;3.47;;
57443;SDS011;43289;52.962;6.196;2023-05-18T06:24:12;7.90;;;4.20;;
57443;SDS011;43289;52.962;6.196;2023-05-18T06:26:38;8.30;;;3.83;;
57443;SDS011;43289;52.962;6.196;2023-05-18T06:29:03;8.15;;;4.20;;
57443;SDS011;43289;52.962;6.196;2023-05-18T06:31:29;12.35;;;4.13;;
57443;SDS011;43289;52.962;6.196;2023-05-18T06:33:55;7.28;;;4.18;;
57443;SDS011;43289;52.962;6.196;2023-05-18T06:36:21;10.27;;;4.25;;
57443;SDS011;43289;52.962;6.196;2023-05-18T06:38:46;8.30;;;4.05;;
57443;SDS011;43289;52.962;6.196;2023-05-18T06:41:12;7.88;;;4.03;;
57443;SDS011;43289;52.962;6.196;2023-05-18T06:43:38;10.82;;;3.78;;
57443;SDS011;43289;52.962;6.196;2023-05-18T06:46:05;8.88;;;3.60;;
57443;SDS011;43289;52.962;6.196;2023-05-18T06:48:32;6.43;;;3.53;;
57443;SDS011;43289;52.962;6.196;2023-05-18T06:50:58;9.80;;;3.80;;
57443;SDS011;43289;52.962;6.196;2023-05-18T06:53:24;10.23;;;3.80;;
57443;SDS011;43289;52.962;6.196;2023-05-18T06:55:50;9.10;;;3.83;;
57443;SDS011;43289;52.962;6.196;2023-05-18T06:58:16;11.02;;;3.80;;
57443;SDS011;43289;52.962;6.196;2023-05-18T07:00:42;8.50;;;3.15;;
57443;SDS011;43289;52.962;6.196;2023-05-18T07:03:08;8.88;;;3.80;;
57443;SDS011;43289;52.962;6.196;2023-05-18T07:05:34;9.25;;;3.60;;
57443;SDS011;43289;52.962;6.196;2023-05-18T07:08:00;8.50;;;3.58;;
57443;SDS011;43289;52.962;6.196;2023-05-18T07:10:28;10.80;;;3.92;;
57443;SDS011;43289;52.962;6.196;2023-05-18T07:12:54;10.82;;;3.53;;
57443;SDS011;43289;52.962;6.196;2023-05-18T07:15:21;8.57;;;3.40;;
57443;SDS011;43289;52.962;6.196;2023-05-18T07:17:49;8.45;;;3.78;;
57443;SDS011;43289;52.962;6.196;2023-05-18T07:20:16;15.55;;;4.65;;
57443;SDS011;43289;52.962;6.196;2023-05-18T07:22:42;11.57;;;5.15;;
57443;SDS011;43289;52.962;6.196;2023-05-18T07:25:08;8.98;;;3.72;;
57443;SDS011;43289;52.962;6.196;2023-05-18T07:27:34;10.48;;;3.58;;
57443;SDS011;43289;52.962;6.196;2023-05-18T07:30:00;10.05;;;3.28;;
57443;SDS011;43289;52.962;6.196;2023-05-18T07:32:25;11.15;;;3.55;;
57443;SDS011;43289;52.962;6.196;2023-05-18T07:34:51;9.63;;;3.72;;
57443;SDS011;43289;52.962;6.196;2023-05-18T07:37:17;8.93;;;3.13;;
57443;SDS011;43289;52.962;6.196;2023-05-18T07:39:43;8.40;;;3.33;;
57443;SDS011;43289;52.962;6.196;2023-05-18T07:42:09;10.82;;;3.85;;
57443;SDS011;43289;52.962;6.196;2023-05-18T07:44:35;7.15;;;3.25;;
57443;SDS011;43289;52.962;6.196;2023-05-18T07:47:00;7.68;;;3.30;;
57443;SDS011;43289;52.962;6.196;2023-05-18T07:49:26;12.85;;;3.22;;
57443;SDS011;43289;52.962;6.196;2023-05-18T07:51:52;10.27;;;3.08;;
57443;SDS011;43289;52.962;6.196;2023-05-18T07:54:17;8.50;;;3.53;;
57443;SDS011;43289;52.962;6.196;2023-05-18T07:56:44;5.68;;;3.10;;
57443;SDS011;43289;52.962;6.196;2023-05-18T07:59:10;7.20;;;2.95;;
57443;SDS011;43289;52.962;6.196;2023-05-18T08:01:37;8.82;;;3.20;;
57443;SDS011;43289;52.962;6.196;2023-05-18T08:04:04;8.20;;;2.63;;
57443;SDS011;43289;52.962;6.196;2023-05-18T08:06:29;10.07;;;3.50;;
57443;SDS011;43289;52.962;6.196;2023-05-18T08:08:55;6.00;;;3.30;;
57443;SDS011;43289;52.962;6.196;2023-05-18T08:11:22;8.65;;;3.08;;
57443;SDS011;43289;52.962;6.196;2023-05-18T08:13:47;8.25;;;2.55;;
57443;SDS011;43289;52.962;6.196;2023-05-18T08:16:14;8.90;;;2.28;;
57443;SDS011;43289;52.962;6.196;2023-05-18T08:18:39;5.60;;;2.38;;
57443;SDS011;43289;52.962;6.196;2023-05-18T08:21:05;6.55;;;3.10;;
57443;SDS011;43289;52.962;6.196;2023-05-18T08:23:37;7.20;;;2.22;;
57443;SDS011;43289;52.962;6.196;2023-05-18T08:26:03;6.70;;;2.70;;
57443;SDS011;43289;52.962;6.196;2023-05-18T08:28:29;8.18;;;3.08;;
57443;SDS011;43289;52.962;6.196;2023-05-18T08:30:55;4.82;;;2.40;;
57443;SDS011;43289;52.962;6.196;2023-05-18T08:33:21;7.53;;;2.60;;
57443;SDS011;43289;52.962;6.196;2023-05-18T08:35:47;6.13;;;2.72;;
57443;SDS011;43289;52.962;6.196;2023-05-18T08:38:13;8.48;;;3.42;;
57443;SDS011;43289;52.962;6.196;2023-05-18T08:40:45;4.53;;;2.33;;
57443;SDS011;43289;52.962;6.196;2023-05-18T08:43:19;5.85;;;2.60;;
57443;SDS011;43289;52.962;6.196;2023-05-18T08:45:48;9.13;;;2.47;;
57443;SDS011;43289;52.962;6.196;2023-05-18T08:48:22;8.10;;;2.30;;
57443;SDS011;43289;52.962;6.196;2023-05-18T08:50:50;4.80;;;2.17;;
57443;SDS011;43289;52.962;6.196;2023-05-18T08:53:18;8.20;;;2.33;;
57443;SDS011;43289;52.962;6.196;2023-05-18T08:55:48;6.07;;;2.70;;
57443;SDS011;43289;52.962;6.196;2023-05-18T08:58:18;8.63;;;2.38;;
57443;SDS011;43289;52.962;6.196;2023-05-18T09:00:44;4.90;;;2.67;;
57443;SDS011;43289;52.962;6.196;2023-05-18T09:03:10;13.05;;;3.17;;
57443;SDS011;43289;52.962;6.196;2023-05-18T09:05:39;7.65;;;2.85;;
57443;SDS011;43289;52.962;6.196;2023-05-18T09:08:05;7.43;;;2.60;;
57443;SDS011;43289;52.962;6.196;2023-05-18T09:10:34;10.52;;;3.20;;
57443;SDS011;43289;52.962;6.196;2023-05-18T09:13:01;11.20;;;3.15;;
57443;SDS011;43289;52.962;6.196;2023-05-18T09:15:29;8.50;;;2.55;;
57443;SDS011;43289;52.962;6.196;2023-05-18T09:17:54;8.02;;;2.50;;
57443;SDS011;43289;52.962;6.196;2023-05-18T09:20:20;7.43;;;2.75;;
57443;SDS011;43289;52.962;6.196;2023-05-18T09:22:47;11.48;;;4.70;;
57443;SDS011;43289;52.962;6.196;2023-05-18T09:25:15;5.88;;;2.90;;
57443;SDS011;43289;52.962;6.196;2023-05-18T09:27:42;8.57;;;3.10;;
57443;SDS011;43289;52.962;6.196;2023-05-18T09:30:11;7.60;;;2.60;;
57443;SDS011;43289;52.962;6.196;2023-05-18T09:32:37;9.43;;;2.40;;
57443;SDS011;43289;52.962;6.196;2023-05-18T09:35:03;6.13;;;2.50;;
57443;SDS011;43289;52.962;6.196;2023-05-18T09:37:31;7.57;;;2.88;;
57443;SDS011;43289;52.962;6.196;2023-05-18T09:39:58;8.10;;;2.65;;
57443;SDS011;43289;52.962;6.196;2023-05-18T09:42:58;6.00;;;3.03;;
57443;SDS011;43289;52.962;6.196;2023-05-18T09:45:17;7.28;;;2.55;;
57443;SDS011;43289;52.962;6.196;2023-05-18T09:47:51;9.88;;;3.17;;
57443;SDS011;43289;52.962;6.196;2023-05-18T09:50:20;6.60;;;2.40;;
57443;SDS011;43289;52.962;6.196;2023-05-18T09:52:47;5.60;;;2.40;;
57443;SDS011;43289;52.962;6.196;2023-05-18T09:55:17;4.97;;;2.10;;
57443;SDS011;43289;52.962;6.196;2023-05-18T09:57:47;7.70;;;2.20;;
57443;SDS011;43289;52.962;6.196;2023-05-18T10:00:14;6.65;;;2.33;;
57443;SDS011;43289;52.962;6.196;2023-05-18T10:02:43;6.20;;;2.17;;
57443;SDS011;43289;52.962;6.196;2023-05-18T10:07:59;4.78;;;2.08;;
57443;SDS011;43289;52.962;6.196;2023-05-18T10:10:26;7.55;;;2.65;;
57443;SDS011;43289;52.962;6.196;2023-05-18T10:12:53;6.80;;;2.50;;
57443;SDS011;43289;52.962;6.196;2023-05-18T10:15:20;11.43;;;2.85;;
57443;SDS011;43289;52.962;6.196;2023-05-18T10:17:47;5.40;;;2.03;;
57443;SDS011;43289;52.962;6.196;2023-05-18T10:20:16;7.88;;;2.88;;
57443;SDS011;43289;52.962;6.196;2023-05-18T10:22:46;5.78;;;2.30;;
57443;SDS011;43289;52.962;6.196;2023-05-18T10:25:15;6.93;;;2.70;;
57443;SDS011;43289;52.962;6.196;2023-05-18T10:27:44;9.68;;;2.78;;
57443;SDS011;43289;52.962;6.196;2023-05-18T10:30:12;5.93;;;2.58;;
57443;SDS011;43289;52.962;6.196;2023-05-18T10:32:38;6.85;;;2.60;;
57443;SDS011;43289;52.962;6.196;2023-05-18T10:35:05;5.10;;;2.45;;
57443;SDS011;43289;52.962;6.196;2023-05-18T10:37:32;5.78;;;2.47;;
57443;SDS011;43289;52.962;6.196;2023-05-18T10:40:00;7.95;;;2.65;;
57443;SDS011;43289;52.962;6.196;2023-05-18T10:42:28;7.70;;;2.60;;
57443;SDS011;43289;52.962;6.196;2023-05-18T10:44:55;5.55;;;2.65;;
57443;SDS011;43289;52.962;6.196;2023-05-18T10:47:23;7.25;;;2.78;;
57443;SDS011;43289;52.962;6.196;2023-05-18T10:49:50;6.40;;;2.25;;
57443;SDS011;43289;52.962;6.196;2023-05-18T10:52:16;6.75;;;2.83;;
57443;SDS011;43289;52.962;6.196;2023-05-18T10:54:43;5.75;;;2.22;;
57443;SDS011;43289;52.962;6.196;2023-05-18T10:57:10;5.97;;;2.80;;
57443;SDS011;43289;52.962;6.196;2023-05-18T10:59:40;10.02;;;3.20;;
57443;SDS011;43289;52.962;6.196;2023-05-18T11:02:08;7.10;;;2.35;;
57443;SDS011;43289;52.962;6.196;2023-05-18T11:04:37;6.05;;;2.20;;
57443;SDS011;43289;52.962;6.196;2023-05-18T11:07:04;7.60;;;2.63;;
57443;SDS011;43289;52.962;6.196;2023-05-18T11:09:34;5.38;;;2.20;;
57443;SDS011;43289;52.962;6.196;2023-05-18T11:12:00;8.43;;;2.50;;
57443;SDS011;43289;52.962;6.196;2023-05-18T11:14:30;6.07;;;2.40;;
57443;SDS011;43289;52.962;6.196;2023-05-18T11:20:24;6.18;;;2.75;;
57443;SDS011;43289;52.962;6.196;2023-05-18T11:22:47;6.07;;;2.53;;
57443;SDS011;43289;52.962;6.196;2023-05-18T11:27:48;7.85;;;3.08;;
57443;SDS011;43289;52.962;6.196;2023-05-18T11:30:28;7.93;;;2.55;;
57443;SDS011;43289;52.962;6.196;2023-05-18T11:33:07;4.85;;;2.40;;
57443;SDS011;43289;52.962;6.196;2023-05-18T11:41:28;5.50;;;2.42;;
57443;SDS011;43289;52.962;6.196;2023-05-18T11:43:57;8.18;;;2.90;;
57443;SDS011;43289;52.962;6.196;2023-05-18T11:46:30;7.63;;;2.60;;
57443;SDS011;43289;52.962;6.196;2023-05-18T11:49:01;6.05;;;2.38;;
57443;SDS011;43289;52.962;6.196;2023-05-18T11:51:29;4.95;;;2.47;;
57443;SDS011;43289;52.962;6.196;2023-05-18T11:53:56;7.28;;;2.90;;
57443;SDS011;43289;52.962;6.196;2023-05-18T11:56:29;7.15;;;2.40;;
57443;SDS011;43289;52.962;6.196;2023-05-18T11:59:10;8.97;;;2.23;;
57443;SDS011;43289;52.962;6.196;2023-05-18T12:01:36;5.68;;;2.38;;
57443;SDS011;43289;52.962;6.196;2023-05-18T12:04:02;5.45;;;2.30;;
57443;SDS011;43289;52.962;6.196;2023-05-18T12:06:28;7.18;;;3.00;;
57443;SDS011;43289;52.962;6.196;2023-05-18T12:08:54;8.98;;;3.20;;
57443;SDS011;43289;52.962;6.196;2023-05-18T12:11:20;7.10;;;3.03;;
57443;SDS011;43289;52.962;6.196;2023-05-18T12:13:46;6.78;;;2.38;;
57443;SDS011;43289;52.962;6.196;2023-05-18T12:16:15;5.80;;;2.78;;
57443;SDS011;43289;52.962;6.196;2023-05-18T12:18:47;7.13;;;2.70;;
57443;SDS011;43289;52.962;6.196;2023-05-18T12:21:14;7.72;;;2.90;;
57443;SDS011;43289;52.962;6.196;2023-05-18T12:23:44;6.63;;;3.13;;
57443;SDS011;43289;52.962;6.196;2023-05-18T12:26:10;6.53;;;3.13;;
57443;SDS011;43289;52.962;6.196;2023-05-18T12:28:35;9.98;;;3.05;;
57443;SDS011;43289;52.962;6.196;2023-05-18T12:31:02;7.35;;;2.50;;
57443;SDS011;43289;52.962;6.196;2023-05-18T12:33:32;7.40;;;2.38;;
57443;SDS011;43289;52.962;6.196;2023-05-18T12:35:58;6.40;;;2.75;;
57443;SDS011;43289;52.962;6.196;2023-05-18T12:38:24;7.47;;;2.67;;
57443;SDS011;43289;52.962;6.196;2023-05-18T12:40:51;9.20;;;2.80;;
57443;SDS011;43289;52.962;6.196;2023-05-18T12:43:18;10.10;;;2.95;;
57443;SDS011;43289;52.962;6.196;2023-05-18T12:45:44;5.72;;;2.50;;
57443;SDS011;43289;52.962;6.196;2023-05-18T12:48:10;6.18;;;2.70;;
57443;SDS011;43289;52.962;6.196;2023-05-18T12:50:44;7.57;;;2.55;;
57443;SDS011;43289;52.962;6.196;2023-05-18T12:53:17;6.32;;;2.30;;
57443;SDS011;43289;52.962;6.196;2023-05-18T12:55:43;5.97;;;2.42;;
57443;SDS011;43289;52.962;6.196;2023-05-18T12:58:10;7.60;;;2.63;;
57443;SDS011;43289;52.962;6.196;2023-05-18T13:00:43;5.38;;;2.65;;
57443;SDS011;43289;52.962;6.196;2023-05-18T13:03:11;5.43;;;2.40;;
57443;SDS011;43289;52.962;6.196;2023-05-18T13:05:44;6.28;;;2.42;;
57443;SDS011;43289;52.962;6.196;2023-05-18T13:08:13;5.82;;;2.50;;
57443;SDS011;43289;52.962;6.196;2023-05-18T13:10:42;6.35;;;2.40;;
57443;SDS011;43289;52.962;6.196;2023-05-18T13:13:09;6.00;;;2.70;;
57443;SDS011;43289;52.962;6.196;2023-05-18T13:15:38;7.50;;;2.30;;
57443;SDS011;43289;52.962;6.196;2023-05-18T13:18:05;4.85;;;2.15;;
57443;SDS011;43289;52.962;6.196;2023-05-18T13:20:39;6.88;;;2.50;;
57443;SDS011;43289;52.962;6.196;2023-05-18T13:23:16;6.20;;;2.20;;
57443;SDS011;43289;52.962;6.196;2023-05-18T13:25:43;7.47;;;2.60;;
57443;SDS011;43289;52.962;6.196;2023-05-18T13:28:11;6.57;;;2.13;;
57443;SDS011;43289;52.962;6.196;2023-05-18T13:30:37;7.30;;;2.75;;
57443;SDS011;43289;52.962;6.196;2023-05-18T13:33:05;9.13;;;2.97;;
57443;SDS011;43289;52.962;6.196;2023-05-18T13:35:34;5.45;;;2.60;;
57443;SDS011;43289;52.962;6.196;2023-05-18T13:38:00;6.78;;;2.30;;
57443;SDS011;43289;52.962;6.196;2023-05-18T13:40:26;5.18;;;2.55;;
57443;SDS011;43289;52.962;6.196;2023-05-18T13:42:52;5.45;;;3.05;;
57443;SDS011;43289;52.962;6.196;2023-05-18T13:45:18;7.07;;;2.78;;
57443;SDS011;43289;52.962;6.196;2023-05-18T13:47:45;6.13;;;2.58;;
57443;SDS011;43289;52.962;6.196;2023-05-18T13:50:14;6.03;;;2.55;;
57443;SDS011;43289;52.962;6.196;2023-05-18T13:52:41;5.85;;;2.47;;
57443;SDS011;43289;52.962;6.196;2023-05-18T13:55:07;9.73;;;3.00;;
57443;SDS011;43289;52.962;6.196;2023-05-18T13:57:33;6.88;;;2.70;;
57443;SDS011;43289;52.962;6.196;2023-05-18T13:59:59;5.95;;;2.50;;
57443;SDS011;43289;52.962;6.196;2023-05-18T14:02:34;7.10;;;2.83;;
57443;SDS011;43289;52.962;6.196;2023-05-18T14:05:01;6.82;;;2.53;;
57443;SDS011;43289;52.962;6.196;2023-05-18T14:07:27;4.88;;;2.38;;
57443;SDS011;43289;52.962;6.196;2023-05-18T14:09:54;5.38;;;2.40;;
57443;SDS011;43289;52.962;6.196;2023-05-18T14:12:19;6.35;;;2.80;;
57443;SDS011;43289;52.962;6.196;2023-05-18T14:14:45;5.53;;;2.30;;
57443;SDS011;43289;52.962;6.196;2023-05-18T14:17:10;6.53;;;2.22;;
57443;SDS011;43289;52.962;6.196;2023-05-18T14:19:37;6.60;;;2.42;;
57443;SDS011;43289;52.962;6.196;2023-05-18T14:22:03;6.93;;;2.95;;
57443;SDS011;43289;52.962;6.196;2023-05-18T14:24:29;5.63;;;2.97;;
57443;SDS011;43289;52.962;6.196;2023-05-18T14:26:55;6.03;;;2.42;;
57443;SDS011;43289;52.962;6.196;2023-05-18T14:29:20;7.43;;;2.70;;
57443;SDS011;43289;52.962;6.196;2023-05-18T14:31:46;7.85;;;2.53;;
57443;SDS011;43289;52.962;6.196;2023-05-18T14:34:11;6.35;;;2.80;;
57443;SDS011;43289;52.962;6.196;2023-05-18T14:36:37;7.72;;;3.20;;
57443;SDS011;43289;52.962;6.196;2023-05-18T14:39:05;7.10;;;2.67;;
57443;SDS011;43289;52.962;6.196;2023-05-18T14:41:30;7.15;;;2.83;;
57443;SDS011;43289;52.962;6.196;2023-05-18T14:43:56;7.35;;;2.20;;
57443;SDS011;43289;52.962;6.196;2023-05-18T14:46:22;7.63;;;2.85;;
57443;SDS011;43289;52.962;6.196;2023-05-18T14:48:47;6.13;;;2.60;;
57443;SDS011;43289;52.962;6.196;2023-05-18T14:51:13;6.22;;;2.47;;
57443;SDS011;43289;52.962;6.196;2023-05-18T14:53:40;5.95;;;2.63;;
57443;SDS011;43289;52.962;6.196;2023-05-18T14:56:05;8.80;;;2.60;;
57443;SDS011;43289;52.962;6.196;2023-05-18T14:58:33;7.40;;;2.70;;
57443;SDS011;43289;52.962;6.196;2023-05-18T15:00:59;5.70;;;2.90;;
57443;SDS011;43289;52.962;6.196;2023-05-18T15:03:25;5.95;;;2.63;;
57443;SDS011;43289;52.962;6.196;2023-05-18T15:05:51;6.72;;;2.55;;
57443;SDS011;43289;52.962;6.196;2023-05-18T15:08:17;7.82;;;2.97;;